Аэропорт: Уйташ. Махачкала

ICAO: URML

METAR:
2019-09-21 16:00:00
URML 211600Z 33007MPS 9999 -SHRA SCT///CB 13/09 Q1017 R32/01//70 TEMPO 32014G21MPS RMK QFE762/1017
METAR:
2019-09-21 14:00:00
TAF URML 211400Z 2115/2124 32011G17MPS 9999 -SHRA BKN017 SCT040CB TEMPO 2115/2117 32014G21MPS 5000 -SHRA BR BKN016 BKN030CB BECMG 2117/2121 5000 -SHRA BR BKN011 BKN020CB